createdAt,value
2023-03-29T00:01:35.975Z,4.83
2023-03-29T00:04:39.017Z,4.10
2023-03-29T00:07:41.512Z,4.23
2023-03-29T00:10:43.436Z,3.87
2023-03-29T00:13:45.881Z,3.83
2023-03-29T00:16:47.862Z,4.53
2023-03-29T00:19:49.682Z,4.20
2023-03-29T00:22:51.751Z,3.97
2023-03-29T00:25:53.981Z,4.67
2023-03-29T00:28:55.938Z,4.23
2023-03-29T00:31:57.979Z,3.90
2023-03-29T00:35:05.162Z,3.87
2023-03-29T00:38:07.114Z,3.83
2023-03-29T00:41:09.971Z,4.07
2023-03-29T00:44:59.267Z,3.80
2023-03-29T00:48:05.987Z,6.03
2023-03-29T00:51:11.706Z,3.97
2023-03-29T00:54:18.681Z,3.80
2023-03-29T00:57:22.776Z,4.07
2023-03-29T01:00:33.233Z,4.23
2023-03-29T01:03:46.794Z,4.23
2023-03-29T01:07:17.997Z,3.70
2023-03-29T01:10:36.266Z,4.10
2023-03-29T01:13:44.754Z,4.10
2023-03-29T01:16:46.733Z,4.10
2023-03-29T01:19:58.167Z,4.30
2023-03-29T01:23:34.509Z,3.50
2023-03-29T01:27:03.189Z,4.23
2023-03-29T01:30:14.336Z,4.07
2023-03-29T01:33:27.863Z,4.20
2023-03-29T01:36:38.915Z,4.30
2023-03-29T01:39:40.677Z,4.20
2023-03-29T01:42:54.255Z,4.03
2023-03-29T01:46:08.305Z,4.77
2023-03-29T01:49:17.088Z,4.50
2023-03-29T01:52:25.429Z,4.93
2023-03-29T01:55:38.337Z,4.60
2023-03-29T01:58:45.041Z,4.00
2023-03-29T02:01:52.091Z,4.20
2023-03-29T02:04:56.130Z,4.30
2023-03-29T02:08:00.452Z,4.00
2023-03-29T02:11:02.477Z,4.07
2023-03-29T02:14:04.644Z,4.00
2023-03-29T02:17:15.258Z,4.17
2023-03-29T02:20:39.355Z,4.03
2023-03-29T02:23:46.741Z,4.20
2023-03-29T02:26:49.363Z,4.40
2023-03-29T02:29:51.307Z,4.23
2023-03-29T02:33:00.619Z,4.27
2023-03-29T02:36:10.335Z,4.17
2023-03-29T02:39:15.662Z,4.23
2023-03-29T02:42:20.511Z,4.50
2023-03-29T02:45:24.093Z,4.43
2023-03-29T02:48:28.323Z,4.60
2023-03-29T02:51:33.336Z,4.57
2023-03-29T02:54:38.049Z,4.80
2023-03-29T02:57:40.998Z,5.03
2023-03-29T03:00:46.943Z,4.83
2023-03-29T03:03:50.677Z,4.80
2023-03-29T03:06:52.789Z,4.70
2023-03-29T03:09:54.627Z,5.27
2023-03-29T03:12:56.688Z,4.77
2023-03-29T03:15:58.564Z,4.80
2023-03-29T03:19:01.030Z,4.63
2023-03-29T03:22:06.223Z,5.40
2023-03-29T03:25:10.500Z,5.30
2023-03-29T03:28:12.564Z,5.37
2023-03-29T03:31:14.980Z,5.70
2023-03-29T03:34:17.545Z,5.67
2023-03-29T03:37:20.154Z,5.30
2023-03-29T03:40:22.618Z,5.37
2023-03-29T03:43:24.996Z,5.50
2023-03-29T03:46:29.371Z,5.47
2023-03-29T03:49:32.435Z,5.73
2023-03-29T03:52:35.417Z,5.30
2023-03-29T03:55:38.004Z,5.53
2023-03-29T03:58:40.659Z,5.17
2023-03-29T04:01:43.884Z,5.40
2023-03-29T04:04:46.836Z,5.03
2023-03-29T04:07:48.981Z,5.83
2023-03-29T04:10:56.141Z,5.83
2023-03-29T04:13:58.888Z,5.53
2023-03-29T04:17:01.453Z,5.60
2023-03-29T04:20:10.451Z,5.60
2023-03-29T04:23:13.334Z,7.07
2023-03-29T04:26:18.019Z,5.87
2023-03-29T04:29:20.109Z,5.93
2023-03-29T04:32:21.959Z,5.80
2023-03-29T04:35:23.965Z,5.27
2023-03-29T04:38:26.687Z,5.73
2023-03-29T04:41:29.075Z,5.80
2023-03-29T04:44:33.602Z,5.47
2023-03-29T04:47:36.775Z,6.17
2023-03-29T04:50:38.687Z,6.03
2023-03-29T04:53:45.170Z,5.90
2023-03-29T04:56:46.995Z,6.03
2023-03-29T04:59:48.856Z,5.73
2023-03-29T05:02:50.605Z,6.47
2023-03-29T05:05:52.604Z,5.60
2023-03-29T05:08:55.285Z,6.00
2023-03-29T05:11:57.100Z,5.83
2023-03-29T05:14:58.929Z,6.23
2023-03-29T05:18:00.982Z,6.10
2023-03-29T05:21:03.364Z,6.57
2023-03-29T05:24:06.370Z,6.77
2023-03-29T05:27:08.252Z,6.67
2023-03-29T05:30:11.685Z,6.20
2023-03-29T05:33:13.423Z,6.20
2023-03-29T05:36:17.035Z,6.20
2023-03-29T05:39:19.080Z,6.43
2023-03-29T05:42:22.599Z,6.20
2023-03-29T05:45:24.759Z,7.00
2023-03-29T05:48:27.271Z,7.07
2023-03-29T05:51:29.047Z,7.37
2023-03-29T05:54:30.772Z,6.70
2023-03-29T05:57:35.080Z,7.37
2023-03-29T06:00:38.598Z,6.67
2023-03-29T06:03:41.053Z,7.20
2023-03-29T06:06:43.028Z,7.13
2023-03-29T06:09:45.629Z,7.10
2023-03-29T06:12:47.761Z,6.70
2023-03-29T06:15:49.553Z,7.10
2023-03-29T06:18:51.369Z,6.47
2023-03-29T06:21:54.356Z,6.67
2023-03-29T06:24:56.762Z,6.53
2023-03-29T06:27:58.572Z,6.67
2023-03-29T06:31:02.937Z,6.87
2023-03-29T06:34:05.947Z,6.47
2023-03-29T06:37:08.494Z,5.87
2023-03-29T06:40:10.708Z,6.47
2023-03-29T06:43:12.968Z,6.30
2023-03-29T06:46:15.100Z,6.03
2023-03-29T06:49:17.305Z,6.23
2023-03-29T06:52:19.551Z,5.90
2023-03-29T06:55:22.928Z,6.27
2023-03-29T06:58:24.823Z,6.37
2023-03-29T07:01:27.125Z,5.93
2023-03-29T07:04:29.268Z,5.63
2023-03-29T07:07:44.203Z,5.30
2023-03-29T07:10:48.863Z,6.03
2023-03-29T07:13:51.306Z,5.60
2023-03-29T07:16:53.338Z,5.93
2023-03-29T07:19:55.243Z,5.33
2023-03-29T07:22:57.484Z,5.40
2023-03-29T07:26:00.041Z,5.67
2023-03-29T07:29:01.809Z,5.70
2023-03-29T07:32:04.346Z,5.13
2023-03-29T07:35:08.447Z,5.47
2023-03-29T07:38:10.677Z,5.40
2023-03-29T07:41:12.607Z,5.83
2023-03-29T07:44:14.401Z,5.33
2023-03-29T07:47:16.643Z,5.40
2023-03-29T07:50:18.565Z,5.03
2023-03-29T07:53:21.099Z,5.07
2023-03-29T07:56:23.144Z,4.80
2023-03-29T07:59:24.931Z,4.83
2023-03-29T08:02:29.962Z,4.80
2023-03-29T08:05:40.783Z,5.10
2023-03-29T08:08:43.593Z,4.80
2023-03-29T08:11:45.410Z,5.00
2023-03-29T08:14:47.263Z,4.83
2023-03-29T08:17:49.066Z,4.73
2023-03-29T08:20:51.894Z,4.80
2023-03-29T08:23:53.645Z,5.00
2023-03-29T08:26:56.153Z,4.80
2023-03-29T08:29:57.947Z,4.80
2023-03-29T08:32:59.785Z,4.87
2023-03-29T08:36:02.096Z,5.00
2023-03-29T08:39:04.120Z,5.00
2023-03-29T08:42:09.050Z,5.10
2023-03-29T08:45:18.864Z,4.97
2023-03-29T08:48:31.536Z,4.53
2023-03-29T08:51:40.521Z,4.60
2023-03-29T08:54:47.366Z,4.73
2023-03-29T08:57:51.701Z,4.70
2023-03-29T09:00:55.319Z,4.63
2023-03-29T09:04:04.008Z,4.20
2023-03-29T09:07:09.585Z,4.43
2023-03-29T09:10:17.049Z,4.30
2023-03-29T09:13:53.046Z,4.37
2023-03-29T09:17:13.446Z,3.60
2023-03-29T09:20:33.944Z,3.83
2023-03-29T09:24:07.679Z,3.70
2023-03-29T09:27:32.397Z,3.80
2023-03-29T09:30:50.765Z,3.80
2023-03-29T09:34:01.640Z,3.73
2023-03-29T09:37:08.897Z,3.80
2023-03-29T09:40:32.904Z,3.83
2023-03-29T09:43:41.129Z,3.47
2023-03-29T09:46:47.500Z,3.77
2023-03-29T09:49:55.255Z,3.20
2023-03-29T09:52:57.244Z,3.47
2023-03-29T09:56:01.440Z,3.27
2023-03-29T09:59:03.178Z,3.77
2023-03-29T10:02:11.982Z,3.57
2023-03-29T10:05:18.038Z,3.07
2023-03-29T10:08:27.348Z,3.00
2023-03-29T10:11:32.887Z,3.17
2023-03-29T10:14:48.259Z,2.87
2023-03-29T10:17:57.362Z,2.90
2023-03-29T10:21:02.562Z,2.80
2023-03-29T10:24:04.938Z,2.60
2023-03-29T10:27:11.741Z,2.70
2023-03-29T10:30:22.433Z,2.60
2023-03-29T10:33:27.864Z,2.57
2023-03-29T10:36:30.379Z,2.37
2023-03-29T10:39:35.801Z,3.00
2023-03-29T10:42:49.951Z,2.40
2023-03-29T10:45:56.843Z,2.80
2023-03-29T10:49:04.483Z,2.90
2023-03-29T10:52:07.380Z,2.70
2023-03-29T10:55:13.905Z,2.90
2023-03-29T10:58:15.613Z,2.70
2023-03-29T11:01:31.729Z,2.50
2023-03-29T11:04:39.332Z,2.93
2023-03-29T11:08:06.026Z,3.13
2023-03-29T11:11:14.520Z,3.00
2023-03-29T11:14:46.175Z,2.70
2023-03-29T11:18:25.183Z,3.00
2023-03-29T11:22:00.671Z,2.90
2023-03-29T11:25:05.562Z,3.00
2023-03-29T11:28:28.754Z,3.00
2023-03-29T11:31:58.002Z,2.87
2023-03-29T11:35:08.860Z,2.60
2023-03-29T11:38:33.590Z,2.40
2023-03-29T11:41:41.135Z,2.40
2023-03-29T11:44:47.110Z,2.67
2023-03-29T11:47:51.459Z,2.87
2023-03-29T11:51:06.809Z,3.10
2023-03-29T11:54:18.024Z,3.10
2023-03-29T11:57:40.653Z,2.83
2023-03-29T12:01:03.072Z,2.53
2023-03-29T12:04:23.101Z,2.80
2023-03-29T12:07:29.563Z,2.70
2023-03-29T12:10:54.506Z,2.30
2023-03-29T12:14:35.800Z,2.27
2023-03-29T12:17:43.821Z,2.40
2023-03-29T12:20:51.456Z,2.50
2023-03-29T12:23:53.578Z,3.00
2023-03-29T12:27:10.211Z,2.80
2023-03-29T12:30:23.744Z,2.77
2023-03-29T12:33:34.614Z,2.90
2023-03-29T12:36:50.841Z,3.40
2023-03-29T12:39:53.631Z,2.50
2023-03-29T12:43:05.889Z,2.60
2023-03-29T12:46:15.047Z,2.57
2023-03-29T12:49:33.953Z,2.80
2023-03-29T12:52:36.930Z,2.50
2023-03-29T12:55:44.637Z,2.43
2023-03-29T12:59:10.794Z,3.07
2023-03-29T13:02:16.032Z,2.90
2023-03-29T13:05:31.111Z,2.40
2023-03-29T13:08:34.883Z,2.70
2023-03-29T13:11:42.671Z,3.00
2023-03-29T13:14:55.847Z,2.63
2023-03-29T13:18:22.679Z,2.63
2023-03-29T13:22:02.308Z,2.50
2023-03-29T13:25:21.687Z,2.50
2023-03-29T13:28:46.710Z,2.87
2023-03-29T13:32:07.278Z,2.80
2023-03-29T13:35:37.679Z,2.60
2023-03-29T13:38:52.350Z,2.40
2023-03-29T13:42:06.253Z,2.70
2023-03-29T13:45:23.137Z,2.40
2023-03-29T13:48:31.963Z,2.17
2023-03-29T13:51:39.128Z,2.60
2023-03-29T13:54:53.734Z,2.37
2023-03-29T13:58:06.231Z,2.50
2023-03-29T14:01:13.834Z,2.20
2023-03-29T14:04:30.452Z,2.20
2023-03-29T14:07:37.262Z,2.17
2023-03-29T14:10:41.755Z,1.97
2023-03-29T14:13:43.803Z,2.30
2023-03-29T14:16:46.095Z,2.00
2023-03-29T14:19:48.947Z,2.20
2023-03-29T14:22:51.540Z,2.83
2023-03-29T14:25:53.510Z,2.50
2023-03-29T14:28:57.977Z,2.13
2023-03-29T14:32:11.542Z,2.13
2023-03-29T14:35:13.424Z,2.00
2023-03-29T14:38:16.495Z,2.00
2023-03-29T14:41:18.576Z,1.73
2023-03-29T14:44:22.644Z,1.67
2023-03-29T14:47:28.521Z,1.83
2023-03-29T14:50:31.454Z,2.13
2023-03-29T14:53:34.584Z,2.30
2023-03-29T14:56:36.693Z,2.30
2023-03-29T14:59:41.832Z,2.10
2023-03-29T15:02:54.801Z,2.33
2023-03-29T15:06:02.494Z,2.40
2023-03-29T15:09:06.741Z,2.63
2023-03-29T15:12:15.843Z,2.20
2023-03-29T15:15:18.053Z,2.70
2023-03-29T15:18:27.271Z,2.30
2023-03-29T15:21:34.903Z,2.50
2023-03-29T15:24:42.964Z,2.80
2023-03-29T15:27:47.675Z,2.80
2023-03-29T15:31:04.583Z,2.80
2023-03-29T15:34:14.223Z,3.10
2023-03-29T15:37:16.307Z,2.50
2023-03-29T15:40:23.332Z,2.73
2023-03-29T15:43:25.773Z,2.43
2023-03-29T15:46:27.684Z,2.33
2023-03-29T15:49:29.479Z,2.43
2023-03-29T15:52:31.849Z,2.63
2023-03-29T15:55:33.703Z,2.43
2023-03-29T15:58:36.944Z,2.30
2023-03-29T16:01:39.392Z,2.17
2023-03-29T16:04:41.263Z,2.30
2023-03-29T16:07:43.135Z,2.57
2023-03-29T16:10:45.047Z,2.13
2023-03-29T16:13:46.787Z,2.20
2023-03-29T16:16:49.222Z,2.60
2023-03-29T16:19:51.696Z,2.50
2023-03-29T16:22:54.255Z,2.70
2023-03-29T16:25:56.152Z,3.20
2023-03-29T16:28:58.100Z,3.00
2023-03-29T16:32:00.199Z,3.00
2023-03-29T16:35:02.092Z,4.83
2023-03-29T16:38:04.555Z,3.63
2023-03-29T16:41:07.218Z,2.70
2023-03-29T16:44:15.293Z,3.00
2023-03-29T16:47:17.217Z,2.90
2023-03-29T16:50:20.144Z,3.20
2023-03-29T16:53:23.197Z,2.73
2023-03-29T16:56:25.106Z,2.97
2023-03-29T16:59:27.287Z,2.50
2023-03-29T17:02:29.154Z,2.30
2023-03-29T17:05:31.882Z,2.20
2023-03-29T17:08:34.030Z,2.00
2023-03-29T17:11:36.496Z,1.97
2023-03-29T17:14:38.554Z,1.70
2023-03-29T17:17:41.080Z,2.40
2023-03-29T17:20:43.204Z,2.40
2023-03-29T17:23:44.999Z,2.80
2023-03-29T17:26:46.741Z,2.27
2023-03-29T17:29:48.956Z,2.17
2023-03-29T17:32:52.449Z,2.50
2023-03-29T17:35:54.343Z,2.30
2023-03-29T17:38:56.494Z,2.50
2023-03-29T17:41:58.255Z,3.23
2023-03-29T17:45:00.455Z,4.27
2023-03-29T17:48:05.550Z,4.60
2023-03-29T17:51:08.114Z,4.17
2023-03-29T17:54:09.953Z,5.27
2023-03-29T17:57:11.716Z,4.27
2023-03-29T18:00:14.580Z,7.93
2023-03-29T18:03:16.699Z,6.20
2023-03-29T18:06:20.634Z,4.10
2023-03-29T18:09:22.387Z,4.00
2023-03-29T18:12:28.757Z,4.10
2023-03-29T18:15:31.013Z,4.23
2023-03-29T18:18:34.130Z,4.30
2023-03-29T18:21:36.897Z,4.73
2023-03-29T18:24:38.684Z,4.40
2023-03-29T18:27:40.611Z,4.83
2023-03-29T18:30:42.364Z,4.83
2023-03-29T18:33:44.240Z,4.90
2023-03-29T18:36:46.777Z,5.87
2023-03-29T18:39:48.791Z,5.07
2023-03-29T18:42:51.824Z,5.40
2023-03-29T18:45:53.719Z,12.83
2023-03-29T18:48:57.667Z,10.20
2023-03-29T18:51:59.804Z,8.20
2023-03-29T18:55:01.710Z,7.30
2023-03-29T18:58:03.515Z,6.30
2023-03-29T19:01:06.502Z,5.67
2023-03-29T19:04:08.294Z,6.77
2023-03-29T19:07:10.020Z,9.37
2023-03-29T19:10:12.169Z,7.97
2023-03-29T19:13:14.204Z,7.30
2023-03-29T19:16:16.592Z,9.33
2023-03-29T19:19:19.228Z,8.23
2023-03-29T19:22:20.925Z,7.73
2023-03-29T19:25:22.849Z,7.10
2023-03-29T19:28:25.940Z,7.43
2023-03-29T19:31:28.050Z,7.80
2023-03-29T19:34:30.767Z,11.00
2023-03-29T19:37:32.503Z,12.63
2023-03-29T19:40:34.404Z,10.13
2023-03-29T19:43:36.360Z,10.90
2023-03-29T19:46:38.184Z,11.50
2023-03-29T19:49:40.003Z,12.33
2023-03-29T19:52:43.015Z,11.60
2023-03-29T19:55:45.440Z,12.03
2023-03-29T19:58:48.184Z,9.93
2023-03-29T20:01:53.295Z,7.67
2023-03-29T20:04:55.198Z,6.80
2023-03-29T20:07:57.052Z,11.93
2023-03-29T20:11:00.032Z,8.90
2023-03-29T20:14:01.812Z,9.00
2023-03-29T20:17:04.484Z,6.40
2023-03-29T20:20:10.321Z,6.50
2023-03-29T20:23:12.301Z,6.57
2023-03-29T20:26:14.262Z,5.93
2023-03-29T20:29:16.418Z,6.57
2023-03-29T20:32:18.187Z,8.53
2023-03-29T20:35:20.041Z,8.23
2023-03-29T20:38:22.019Z,7.03
2023-03-29T20:41:24.445Z,7.10
2023-03-29T20:44:28.424Z,6.47
2023-03-29T20:47:30.210Z,6.57
2023-03-29T20:50:32.035Z,6.83
2023-03-29T20:53:34.557Z,5.93
2023-03-29T20:56:39.570Z,6.53
2023-03-29T20:59:44.766Z,6.10
2023-03-29T21:02:47.173Z,6.00
2023-03-29T21:05:54.297Z,5.60
2023-03-29T21:08:57.652Z,5.97
2023-03-29T21:11:59.528Z,5.33
2023-03-29T21:15:02.465Z,5.20
2023-03-29T21:18:04.638Z,4.80
2023-03-29T21:21:08.368Z,5.90
2023-03-29T21:24:13.495Z,4.90
2023-03-29T21:27:15.501Z,5.23
2023-03-29T21:30:17.596Z,5.30
2023-03-29T21:33:19.373Z,5.57
2023-03-29T21:36:21.336Z,5.10
2023-03-29T21:39:26.805Z,5.30
2023-03-29T21:42:28.642Z,4.97
2023-03-29T21:45:30.639Z,4.80
2023-03-29T21:48:32.831Z,4.60
2023-03-29T21:51:34.757Z,4.83
2023-03-29T21:54:36.544Z,5.23
2023-03-29T21:57:38.409Z,7.20
2023-03-29T22:00:40.316Z,5.03
2023-03-29T22:03:42.362Z,6.43
2023-03-29T22:06:44.269Z,4.80
2023-03-29T22:09:46.530Z,4.60
2023-03-29T22:12:48.881Z,5.07
2023-03-29T22:16:03.565Z,5.10
2023-03-29T22:19:06.306Z,4.73
2023-03-29T22:22:13.425Z,4.63
2023-03-29T22:25:17.672Z,5.40
2023-03-29T22:28:19.447Z,5.70
2023-03-29T22:31:23.032Z,6.40
2023-03-29T22:34:24.958Z,5.80
2023-03-29T22:37:26.957Z,5.53
2023-03-29T22:40:30.795Z,5.10
2023-03-29T22:43:32.544Z,4.77
2023-03-29T22:46:34.416Z,4.77
2023-03-29T22:49:36.419Z,4.83
2023-03-29T22:52:38.227Z,5.33
2023-03-29T22:55:40.047Z,5.33
2023-03-29T22:58:42.818Z,5.13
2023-03-29T23:01:44.625Z,4.40
2023-03-29T23:04:46.884Z,4.30
2023-03-29T23:07:48.927Z,4.70
2023-03-29T23:10:51.126Z,4.77
2023-03-29T23:13:54.003Z,4.50
2023-03-29T23:16:55.851Z,4.53
2023-03-29T23:19:57.958Z,4.93
2023-03-29T23:23:00.317Z,4.90
2023-03-29T23:26:02.556Z,4.97
2023-03-29T23:29:04.317Z,4.50
2023-03-29T23:32:06.570Z,4.80
2023-03-29T23:35:08.765Z,5.03
2023-03-29T23:38:10.501Z,5.43
2023-03-29T23:41:13.448Z,5.03
2023-03-29T23:44:15.378Z,4.87
2023-03-29T23:47:17.339Z,4.90
2023-03-29T23:50:19.189Z,4.93
2023-03-29T23:53:21.034Z,4.80
2023-03-29T23:56:23.186Z,4.90
2023-03-29T23:59:28.862Z,5.03
